Time;durP1;ratioP1;P1;durP2;ratioP2;P2;SDS_P1;SDS_P2;PMS_P1;PMS_P2;Temp;Humidity;BMP_temperature;BMP_pressure;BME280_temperature;BME280_humidity;BME280_pressure;Samples;Min_cycle;Max_cycle;Signal;HPM_P1;HPM_P2
2023/07/07 00:00:07;;;;;;;8.53;5.80;;;14.20;99.90;;;;;;4936215;29;20389;-78
2023/07/07 00:02:35;;;;;;;6.40;5.23;;;14.10;99.90;;;;;;4935539;29;20212;-78
2023/07/07 00:05:03;;;;;;;7.10;5.13;;;14.10;99.90;;;;;;4935522;29;20275;-78
2023/07/07 00:07:32;;;;;;;7.97;5.77;;;14.00;99.90;;;;;;4935783;29;20212;-78
2023/07/07 00:10:01;;;;;;;8.70;5.67;;;14.00;99.90;;;;;;4936044;29;20219;-79
2023/07/07 00:12:30;;;;;;;8.73;5.97;;;13.90;99.90;;;;;;4935129;29;20663;-78
2023/07/07 00:14:58;;;;;;;8.10;5.60;;;13.80;99.90;;;;;;4935895;29;20299;-79
2023/07/07 00:17:26;;;;;;;6.47;5.57;;;13.80;99.90;;;;;;4935517;29;20307;-74
2023/07/07 00:19:54;;;;;;;6.70;5.40;;;13.80;99.90;;;;;;4935354;29;20224;-75
2023/07/07 00:22:22;;;;;;;7.50;5.63;;;13.80;99.90;;;;;;4934931;29;20626;-76
2023/07/07 00:24:50;;;;;;;7.40;5.93;;;13.70;99.90;;;;;;4935505;29;20231;-76
2023/07/07 00:27:20;;;;;;;8.40;5.97;;;13.70;99.90;;;;;;4935499;29;20259;-75
2023/07/07 00:29:48;;;;;;;8.13;5.73;;;13.70;99.90;;;;;;4934977;29;20208;-75
2023/07/07 00:32:16;;;;;;;10.13;6.30;;;13.60;99.90;;;;;;4934773;28;20216;-76
2023/07/07 00:34:45;;;;;;;8.07;6.00;;;13.60;99.90;;;;;;4935333;29;20219;-75
2023/07/07 00:37:13;;;;;;;7.47;5.80;;;13.60;99.90;;;;;;4935246;29;20237;-78
2023/07/07 00:39:41;;;;;;;7.73;5.73;;;13.60;99.90;;;;;;4964337;28;20215;-78
2023/07/07 00:42:10;;;;;;;7.67;6.00;;;13.60;99.90;;;;;;4973200;28;20306;-78
2023/07/07 00:45:11;;;;;;;7.90;5.90;;;13.60;99.90;;;;;;4973957;28;20227;-79
2023/07/07 00:47:44;;;;;;;6.63;5.47;;;13.60;99.90;;;;;;4935653;28;20263;-75
2023/07/07 00:50:15;;;;;;;8.10;5.60;;;13.60;99.90;;;;;;4936804;29;20248;-75
2023/07/07 00:52:45;;;;;;;8.43;5.90;;;13.60;99.90;;;;;;4937523;29;20188;-75
2023/07/07 00:55:20;;;;;;;11.50;5.93;;;13.60;99.90;;;;;;4937843;29;20212;-76
2023/07/07 00:57:49;;;;;;;7.80;6.00;;;13.60;99.90;;;;;;4938217;29;20248;-73
2023/07/07 01:00:19;;;;;;;7.63;5.53;;;13.60;99.90;;;;;;4936988;29;20209;-80
2023/07/07 01:02:54;;;;;;;10.77;5.80;;;13.60;99.90;;;;;;4934736;29;20259;-79
2023/07/07 01:05:28;;;;;;;7.77;5.60;;;13.60;99.90;;;;;;4934874;29;20589;-78
2023/07/07 01:08:00;;;;;;;7.43;6.00;;;13.60;99.90;;;;;;4935360;29;20200;-78
2023/07/07 01:10:28;;;;;;;7.33;5.40;;;13.60;99.90;;;;;;4934925;29;20216;-79
2023/07/07 01:12:56;;;;;;;7.57;5.60;;;13.60;99.90;;;;;;4934702;29;20223;-78
2023/07/07 01:15:31;;;;;;;7.30;5.87;;;13.50;99.90;;;;;;4934967;29;20272;-79
2023/07/07 01:18:20;;;;;;;6.87;5.30;;;13.50;99.90;;;;;;4935036;29;20259;-79
2023/07/07 01:21:01;;;;;;;7.97;5.87;;;13.40;99.90;;;;;;4935052;29;20216;-78
2023/07/07 01:24:11;;;;;;;8.43;6.03;;;13.30;99.90;;;;;;4934170;29;20208;-76
2023/07/07 01:27:01;;;;;;;7.70;5.50;;;13.40;99.90;;;;;;4934599;29;20551;-79
2023/07/07 01:30:02;;;;;;;7.23;5.77;;;13.30;99.90;;;;;;4934914;29;20291;-79
2023/07/07 01:32:33;;;;;;;7.40;5.80;;;13.30;99.90;;;;;;4934363;29;20306;-79
2023/07/07 01:35:09;;;;;;;8.03;6.00;;;13.30;99.90;;;;;;4934891;29;20220;-79
2023/07/07 01:37:37;;;;;;;8.40;5.73;;;13.30;99.90;;;;;;4953057;28;20367;-79
2023/07/07 01:40:07;;;;;;;8.13;5.70;;;13.30;99.90;;;;;;4953899;28;20248;-79
2023/07/07 01:42:40;;;;;;;7.30;5.47;;;13.20;99.90;;;;;;4934602;29;20200;-79
2023/07/07 01:45:15;;;;;;;8.50;5.80;;;13.30;99.90;;;;;;4934439;29;20582;-79
2023/07/07 01:47:52;;;;;;;8.50;5.87;;;13.20;99.90;;;;;;4934559;29;20238;-79
2023/07/07 01:50:26;;;;;;;6.40;5.63;;;13.30;99.90;;;;;;4935314;29;20243;-79
2023/07/07 01:52:58;;;;;;;8.70;5.83;;;13.30;99.90;;;;;;4934419;29;20219;-79
2023/07/07 01:55:28;;;;;;;9.50;5.93;;;13.20;99.90;;;;;;4934378;29;20212;-79
2023/07/07 01:57:59;;;;;;;7.47;5.70;;;13.30;99.90;;;;;;4934829;29;20220;-79
2023/07/07 02:00:29;;;;;;;7.77;5.87;;;13.20;99.90;;;;;;4936337;29;20216;-79
2023/07/07 02:03:00;;;;;;;7.70;5.80;;;13.20;99.90;;;;;;4934046;29;20742;-79
2023/07/07 02:05:29;;;;;;;8.00;6.07;;;13.30;99.90;;;;;;4934101;29;20260;-79
2023/07/07 02:07:59;;;;;;;7.60;6.07;;;13.20;99.90;;;;;;4934798;29;20291;-79
2023/07/07 02:10:27;;;;;;;7.27;5.77;;;13.10;99.90;;;;;;4934291;29;20584;-76
2023/07/07 02:12:55;;;;;;;9.50;5.67;;;13.10;99.90;;;;;;4934219;29;20212;-78
2023/07/07 02:15:24;;;;;;;8.80;6.03;;;13.10;99.90;;;;;;4934939;29;20240;-79
2023/07/07 02:17:52;;;;;;;8.23;6.00;;;13.10;99.90;;;;;;4935029;29;20216;-79
2023/07/07 02:20:21;;;;;;;9.37;6.30;;;13.10;99.90;;;;;;4938119;29;20208;-79
2023/07/07 02:22:49;;;;;;;9.07;6.17;;;13.00;99.90;;;;;;4936918;29;20208;-79
2023/07/07 02:25:18;;;;;;;8.50;5.53;;;13.10;99.90;;;;;;4937384;29;20794;-79
2023/07/07 02:27:46;;;;;;;8.33;5.67;;;13.10;99.90;;;;;;4937611;29;20216;-77
2023/07/07 02:30:14;;;;;;;7.50;6.03;;;13.00;99.90;;;;;;4937587;29;20240;-79
2023/07/07 02:32:42;;;;;;;7.33;5.47;;;13.00;99.90;;;;;;4937421;29;20244;-78
2023/07/07 02:35:11;;;;;;;8.07;5.90;;;13.00;99.90;;;;;;4939720;28;20287;-79
2023/07/07 02:37:40;;;;;;;11.03;6.00;;;13.00;99.90;;;;;;4964992;28;20216;-79
2023/07/07 02:40:10;;;;;;;6.63;5.47;;;13.00;99.90;;;;;;4938622;29;20219;-78
2023/07/07 02:42:38;;;;;;;7.67;5.60;;;12.90;99.90;;;;;;4937080;29;20589;-79
2023/07/07 02:45:07;;;;;;;7.57;5.47;;;12.90;99.90;;;;;;4937401;29;20271;-78
2023/07/07 02:47:35;;;;;;;7.47;5.40;;;12.90;99.90;;;;;;4937312;29;20315;-80
2023/07/07 02:50:03;;;;;;;7.30;5.37;;;12.90;99.90;;;;;;4937160;29;20686;-78
2023/07/07 02:52:31;;;;;;;7.13;5.37;;;12.90;99.90;;;;;;4936969;29;20212;-78
2023/07/07 02:55:01;;;;;;;7.60;5.60;;;12.80;99.90;;;;;;4936815;29;20224;-79
2023/07/07 02:57:29;;;;;;;6.87;5.20;;;12.80;99.90;;;;;;4937504;29;20204;-79
2023/07/07 02:59:57;;;;;;;7.30;5.50;;;12.80;99.90;;;;;;4937004;29;20218;-79
2023/07/07 03:02:25;;;;;;;7.57;5.93;;;12.80;99.90;;;;;;4936900;29;20255;-80
2023/07/07 03:04:54;;;;;;;8.37;6.00;;;12.70;99.90;;;;;;4936638;29;20229;-79
2023/07/07 03:07:22;;;;;;;7.93;6.07;;;12.80;99.90;;;;;;4937352;29;20256;-78
2023/07/07 03:09:50;;;;;;;8.13;5.77;;;12.70;99.90;;;;;;4936822;29;20216;-79
2023/07/07 03:12:19;;;;;;;9.53;5.50;;;12.70;99.90;;;;;;4936230;29;20303;-79
2023/07/07 03:14:47;;;;;;;8.87;5.67;;;12.70;99.90;;;;;;4936715;29;20650;-78
2023/07/07 03:17:16;;;;;;;8.23;5.60;;;12.60;99.90;;;;;;4936834;29;20216;-79
2023/07/07 03:19:44;;;;;;;7.10;4.90;;;12.60;99.90;;;;;;4936751;29;20220;-79
2023/07/07 03:22:12;;;;;;;7.33;5.37;;;12.60;99.90;;;;;;4942155;29;20207;-79
2023/07/07 03:24:40;;;;;;;8.63;6.00;;;12.50;99.90;;;;;;4955783;29;20216;-79
2023/07/07 03:27:08;;;;;;;7.40;5.63;;;12.50;99.90;;;;;;4955501;29;20231;-80
2023/07/07 03:29:38;;;;;;;8.97;5.40;;;12.60;99.90;;;;;;4954459;28;20255;-79
2023/07/07 03:32:07;;;;;;;8.07;5.70;;;12.50;99.90;;;;;;4953973;29;20282;-79
2023/07/07 03:34:36;;;;;;;9.50;5.97;;;12.50;99.90;;;;;;4963520;28;20614;-79
2023/07/07 03:37:05;;;;;;;8.17;6.27;;;12.50;99.90;;;;;;4975087;28;20231;-79
2023/07/07 03:39:33;;;;;;;9.23;6.00;;;12.50;99.90;;;;;;4975132;28;20238;-78
2023/07/07 03:42:01;;;;;;;8.23;5.43;;;12.50;99.90;;;;;;4974638;28;20556;-76
2023/07/07 03:44:29;;;;;;;8.90;5.80;;;12.50;99.90;;;;;;4974537;28;20233;-76
2023/07/07 03:46:59;;;;;;;7.73;5.87;;;12.50;99.90;;;;;;4974369;28;20262;-77
2023/07/07 03:49:27;;;;;;;8.60;5.20;;;12.50;99.90;;;;;;4974768;28;20214;-77
2023/07/07 03:51:55;;;;;;;7.17;5.57;;;12.50;99.90;;;;;;4955688;28;20213;-79
2023/07/07 03:54:23;;;;;;;8.43;5.90;;;12.50;99.90;;;;;;4936130;29;20270;-79
2023/07/07 03:56:51;;;;;;;8.70;5.60;;;12.50;99.90;;;;;;4936206;29;20216;-78
2023/07/07 03:59:20;;;;;;;12.03;6.17;;;12.50;99.90;;;;;;4935814;29;20251;-79
2023/07/07 04:01:49;;;;;;;9.00;5.80;;;12.50;99.90;;;;;;4935299;29;20208;-76
2023/07/07 04:04:18;;;;;;;8.70;5.60;;;12.60;99.90;;;;;;4935907;29;20212;-78
2023/07/07 04:06:47;;;;;;;9.97;5.90;;;12.50;99.90;;;;;;4935444;29;20231;-80
2023/07/07 04:09:18;;;;;;;8.63;5.37;;;12.60;99.90;;;;;;4944524;28;20602;-78
2023/07/07 04:11:46;;;;;;;6.77;5.00;;;12.60;99.90;;;;;;4938493;28;20220;-78
2023/07/07 04:14:14;;;;;;;9.13;6.20;;;12.60;99.90;;;;;;4935305;29;20248;-78
2023/07/07 04:16:42;;;;;;;8.53;5.77;;;12.70;99.90;;;;;;4935302;29;20232;-79
2023/07/07 04:19:10;;;;;;;8.13;5.90;;;12.70;99.90;;;;;;4935457;29;20223;-77
2023/07/07 04:21:40;;;;;;;9.60;5.63;;;12.70;99.90;;;;;;4935284;29;20220;-77
2023/07/07 04:24:08;;;;;;;9.93;6.30;;;12.70;99.90;;;;;;4934870;29;20216;-79
2023/07/07 04:26:38;;;;;;;8.80;5.50;;;12.80;99.90;;;;;;4935389;29;20578;-78
2023/07/07 04:29:06;;;;;;;9.83;5.73;;;12.80;99.90;;;;;;4935047;29;20224;-79
2023/07/07 04:31:35;;;;;;;7.30;5.60;;;12.80;99.90;;;;;;4935082;29;20251;-79
2023/07/07 04:34:03;;;;;;;7.57;5.43;;;12.90;99.90;;;;;;4963389;28;20211;-78
2023/07/07 04:36:31;;;;;;;8.53;6.00;;;12.90;99.90;;;;;;4973452;28;20247;-79
2023/07/07 04:39:00;;;;;;;9.00;5.83;;;13.00;99.90;;;;;;4938209;28;20212;-78
2023/07/07 04:41:28;;;;;;;9.13;5.90;;;13.00;99.90;;;;;;4934687;29;20216;-79
2023/07/07 04:43:59;;;;;;;10.47;6.03;;;13.10;99.90;;;;;;4934753;29;20251;-78
2023/07/07 04:46:30;;;;;;;8.13;5.10;;;13.20;99.90;;;;;;4934941;29;20208;-80
2023/07/07 04:48:59;;;;;;;8.67;5.30;;;13.20;99.90;;;;;;4934757;29;20220;-80
2023/07/07 04:51:27;;;;;;;6.97;5.27;;;13.30;99.90;;;;;;4935011;29;20279;-80
2023/07/07 04:53:55;;;;;;;8.23;5.33;;;13.40;99.90;;;;;;4934149;29;20322;-79
2023/07/07 04:56:24;;;;;;;8.13;5.60;;;13.40;99.90;;;;;;4934671;29;20239;-79
2023/07/07 04:58:54;;;;;;;8.87;5.13;;;13.50;99.90;;;;;;4934847;29;20214;-79
2023/07/07 05:01:24;;;;;;;8.60;5.10;;;13.60;99.90;;;;;;4934706;29;20250;-80
2023/07/07 05:03:54;;;;;;;10.23;5.80;;;13.70;99.90;;;;;;4934538;29;20279;-81
2023/07/07 05:06:24;;;;;;;8.63;5.73;;;13.80;99.90;;;;;;4934858;29;20204;-80
2023/07/07 05:08:53;;;;;;;8.30;5.30;;;13.80;99.90;;;;;;4935068;29;20228;-80
2023/07/07 05:11:22;;;;;;;8.23;5.40;;;13.90;99.90;;;;;;4935021;29;20216;-79
2023/07/07 05:13:53;;;;;;;8.40;5.67;;;14.00;99.90;;;;;;4934767;29;20223;-79
2023/07/07 05:16:23;;;;;;;7.93;5.87;;;14.10;99.90;;;;;;4935230;29;20263;-78
2023/07/07 05:18:52;;;;;;;8.53;5.27;;;14.20;99.90;;;;;;4934777;29;20200;-80
2023/07/07 05:21:23;;;;;;;7.00;4.87;;;14.20;99.90;;;;;;4934744;29;20208;-79
2023/07/07 05:23:52;;;;;;;6.33;4.77;;;14.40;99.90;;;;;;4934502;29;20629;-80
2023/07/07 05:26:20;;;;;;;7.63;5.40;;;14.50;99.90;;;;;;4934973;29;20267;-79
2023/07/07 05:28:51;;;;;;;9.03;5.17;;;14.60;99.90;;;;;;4934359;29;20232;-80
2023/07/07 05:31:21;;;;;;;6.40;5.17;;;14.70;99.90;;;;;;4942322;28;20265;-78
2023/07/07 05:33:49;;;;;;;7.70;5.47;;;14.80;99.90;;;;;;4973092;28;20199;-78
2023/07/07 05:36:17;;;;;;;7.43;4.90;;;14.90;99.90;;;;;;4973281;28;20231;-76
2023/07/07 05:38:45;;;;;;;7.47;5.30;;;15.00;99.90;;;;;;4938006;28;20211;-78
2023/07/07 05:41:13;;;;;;;8.43;5.37;;;15.10;99.90;;;;;;4934419;29;20705;-79
2023/07/07 05:43:41;;;;;;;8.63;5.20;;;15.30;99.90;;;;;;4934009;29;20267;-80
2023/07/07 05:46:13;;;;;;;8.20;5.10;;;15.40;99.90;;;;;;4934427;29;20208;-79
2023/07/07 05:48:43;;;;;;;7.50;5.47;;;15.50;99.90;;;;;;4934060;29;20714;-79
2023/07/07 05:51:14;;;;;;;7.83;5.13;;;15.70;99.90;;;;;;4934604;29;20268;-80
2023/07/07 05:53:43;;;;;;;7.90;4.90;;;16.00;99.90;;;;;;4935870;29;20212;-80
2023/07/07 05:56:14;;;;;;;9.03;5.20;;;16.50;99.90;;;;;;4937927;29;20208;-80
2023/07/07 05:58:42;;;;;;;7.20;4.97;;;17.10;99.90;;;;;;4937649;29;20214;-77
2023/07/07 06:01:13;;;;;;;7.13;4.80;;;18.20;99.90;;;;;;4938077;29;20295;-78
2023/07/07 06:03:45;;;;;;;8.17;4.80;;;19.50;99.90;;;;;;4937474;29;20626;-73
2023/07/07 06:06:14;;;;;;;7.00;4.60;;;20.90;99.90;;;;;;4937686;29;20212;-74
2023/07/07 06:08:42;;;;;;;8.10;4.60;;;22.00;99.90;;;;;;4937898;29;20232;-75
2023/07/07 06:11:10;;;;;;;5.90;4.50;;;22.70;99.90;;;;;;4937618;29;20667;-74
2023/07/07 06:13:39;;;;;;;6.30;4.77;;;23.50;99.90;;;;;;4937259;29;20220;-77
2023/07/07 06:16:07;;;;;;;7.40;4.60;;;23.80;99.90;;;;;;4937520;29;20255;-75
2023/07/07 06:18:36;;;;;;;6.17;4.67;;;24.60;99.00;;;;;;4937899;29;20204;-74
2023/07/07 06:21:07;;;;;;;4.80;4.00;;;25.20;97.50;;;;;;4937669;29;20295;-76
2023/07/07 06:23:35;;;;;;;5.47;4.65;;;25.50;95.20;;;;;;4937353;29;20216;-76
2023/07/07 06:26:03;;;;;;;4.55;3.90;;;25.60;93.00;;;;;;4937704;29;20667;-75
2023/07/07 06:28:31;;;;;;;7.55;4.82;;;26.30;92.00;;;;;;4937238;29;20224;-76
2023/07/07 06:31:00;;;;;;;6.10;4.43;;;25.80;91.30;;;;;;4962259;28;20654;-77
2023/07/07 06:33:29;;;;;;;6.43;4.70;;;25.30;91.70;;;;;;4949575;28;20216;-77
2023/07/07 06:35:57;;;;;;;4.80;4.18;;;25.50;92.30;;;;;;4937562;29;20342;-78
2023/07/07 06:38:26;;;;;;;6.10;4.65;;;25.90;91.10;;;;;;4937454;29;20208;-78
2023/07/07 06:40:55;;;;;;;4.88;4.30;;;26.80;89.60;;;;;;4937450;29;20588;-77
2023/07/07 06:43:23;;;;;;;5.68;4.32;;;26.90;83.20;;;;;;4936807;29;20279;-77
2023/07/07 06:45:55;;;;;;;5.70;4.13;;;26.90;82.80;;;;;;4937354;29;20307;-76
2023/07/07 06:48:24;;;;;;;5.07;4.40;;;27.00;80.30;;;;;;4937195;29;20212;-77
2023/07/07 06:50:52;;;;;;;7.30;3.97;;;28.10;78.40;;;;;;4937069;29;20304;-77
2023/07/07 06:53:20;;;;;;;5.97;4.32;;;28.80;76.20;;;;;;4936443;29;20255;-80
2023/07/07 06:55:50;;;;;;;6.65;4.68;;;28.80;73.60;;;;;;4937154;29;20246;-77
2023/07/07 06:58:21;;;;;;;5.47;4.55;;;28.80;69.20;;;;;;4936916;29;20232;-77
2023/07/07 07:00:49;;;;;;;4.78;4.00;;;28.90;68.10;;;;;;4955722;29;20585;-78
2023/07/07 07:03:17;;;;;;;6.03;4.78;;;29.40;67.20;;;;;;4955530;29;20630;-79
2023/07/07 07:05:46;;;;;;;6.50;4.60;;;29.90;64.40;;;;;;4956032;28;20211;-78
2023/07/07 07:08:14;;;;;;;6.95;4.30;;;30.10;60.00;;;;;;4943915;29;20687;-77
2023/07/07 07:10:42;;;;;;;6.68;4.45;;;30.20;62.30;;;;;;4936719;29;20212;-78
2023/07/07 07:13:12;;;;;;;5.22;4.00;;;30.40;60.20;;;;;;4936647;29;20231;-78
2023/07/07 07:15:40;;;;;;;6.07;4.30;;;31.00;57.20;;;;;;4936260;29;20663;-79
2023/07/07 07:18:11;;;;;;;7.80;4.60;;;31.30;55.40;;;;;;4936386;29;20236;-78
2023/07/07 07:20:39;;;;;;;8.35;4.90;;;30.40;55.40;;;;;;4936343;29;20299;-77
2023/07/07 07:23:07;;;;;;;5.80;4.13;;;31.00;53.80;;;;;;4936112;29;20216;-77
2023/07/07 07:25:35;;;;;;;5.35;4.40;;;31.50;51.40;;;;;;4936614;29;20212;-77
2023/07/07 07:28:03;;;;;;;4.47;4.07;;;31.80;53.20;;;;;;4937103;28;20216;-79
2023/07/07 07:30:33;;;;;;;6.30;4.20;;;31.60;55.10;;;;;;4956389;28;20247;-78
2023/07/07 07:33:04;;;;;;;5.90;4.32;;;32.30;53.10;;;;;;4935999;29;20678;-78
2023/07/07 07:35:33;;;;;;;6.70;4.25;;;32.70;50.40;;;;;;4936714;29;20228;-78
2023/07/07 07:38:01;;;;;;;5.60;4.60;;;33.10;48.80;;;;;;4936447;29;20741;-78
2023/07/07 07:40:29;;;;;;;5.88;4.32;;;32.30;49.20;;;;;;4936410;29;20216;-78
2023/07/07 07:42:57;;;;;;;7.40;4.50;;;33.10;48.90;;;;;;4935712;29;20213;-78
2023/07/07 07:45:26;;;;;;;6.93;4.80;;;32.90;47.10;;;;;;4936003;29;20212;-79
2023/07/07 07:47:55;;;;;;;5.95;4.55;;;33.40;45.50;;;;;;4935642;29;20216;-78
2023/07/07 07:50:26;;;;;;;6.63;4.85;;;33.50;45.50;;;;;;4936258;29;20208;-78
2023/07/07 07:52:54;;;;;;;5.43;4.60;;;33.60;42.10;;;;;;4935802;29;20200;-78
2023/07/07 07:55:23;;;;;;;5.57;4.70;;;32.80;41.00;;;;;;4935379;29;20228;-78
2023/07/07 07:57:51;;;;;;;6.82;5.15;;;33.10;42.10;;;;;;4935642;29;20667;-79
2023/07/07 08:00:19;;;;;;;5.07;4.45;;;32.10;42.50;;;;;;4935856;29;20236;-78
2023/07/07 08:02:48;;;;;;;4.95;4.43;;;32.00;44.40;;;;;;4935693;29;20545;-79
2023/07/07 08:05:18;;;;;;;6.03;4.63;;;33.40;41.60;;;;;;4935257;29;20667;-78
2023/07/07 08:07:46;;;;;;;5.55;4.57;;;33.00;41.00;;;;;;4936212;29;20212;-79
2023/07/07 08:10:14;;;;;;;7.70;4.63;;;33.30;40.30;;;;;;4936711;29;20240;-79
2023/07/07 08:12:42;;;;;;;5.57;5.00;;;33.40;42.80;;;;;;4935911;29;20220;-77
2023/07/07 08:15:11;;;;;;;6.03;4.90;;;32.80;40.00;;;;;;4935945;29;20267;-78
2023/07/07 08:17:40;;;;;;;7.22;4.85;;;33.00;41.00;;;;;;4937043;29;20382;-77
2023/07/07 08:20:19;;;;;;;5.43;4.70;;;33.30;41.30;;;;;;4937384;29;20270;-78
2023/07/07 08:22:47;;;;;;;6.00;4.53;;;34.10;38.60;;;;;;4936148;29;20301;-77
2023/07/07 08:25:15;;;;;;;7.13;4.65;;;33.20;37.00;;;;;;4935636;29;20267;-78
2023/07/07 08:27:43;;;;;;;7.22;4.55;;;33.40;40.70;;;;;;4952832;28;20238;-80
2023/07/07 08:30:31;;;;;;;5.20;4.18;;;33.80;37.60;;;;;;4973599;28;20210;-78
2023/07/07 08:33:00;;;;;;;5.72;4.65;;;34.20;37.30;;;;;;4936489;28;20216;-77
2023/07/07 08:35:29;;;;;;;5.93;4.43;;;34.00;34.10;;;;;;4935054;29;20236;-79
2023/07/07 08:37:57;;;;;;;6.72;4.43;;;33.80;33.40;;;;;;4935162;29;20236;-78
2023/07/07 08:40:35;;;;;;;4.70;4.15;;;33.40;33.60;;;;;;4934784;29;20232;-77
2023/07/07 08:43:03;;;;;;;5.40;4.20;;;34.00;36.20;;;;;;4935230;29;20196;-76
2023/07/07 08:45:32;;;;;;;6.80;4.43;;;32.70;33.60;;;;;;4935373;29;20291;-78
2023/07/07 08:48:12;;;;;;;5.10;4.38;;;33.40;35.30;;;;;;4934898;29;20267;-78
2023/07/07 08:50:47;;;;;;;5.63;4.35;;;34.90;31.50;;;;;;4933754;29;20640;-77
2023/07/07 08:53:38;;;;;;;4.80;4.10;;;33.90;33.90;;;;;;4934730;29;20215;-77
2023/07/07 08:56:14;;;;;;;5.40;3.80;;;33.90;32.40;;;;;;4933943;29;20216;-79
2023/07/07 08:58:52;;;;;;;5.75;3.65;;;34.30;27.90;;;;;;4934530;29;20750;-77
2023/07/07 09:01:36;;;;;;;4.63;4.13;;;34.10;28.90;;;;;;4934834;29;20219;-79
2023/07/07 09:04:21;;;;;;;5.43;4.32;;;34.10;24.90;;;;;;4933615;29;20255;-77
2023/07/07 09:07:02;;;;;;;5.68;4.10;;;34.40;24.30;;;;;;4934795;29;20250;-77
2023/07/07 09:09:47;;;;;;;3.78;3.38;;;34.50;20.70;;;;;;4935321;29;20193;-79
2023/07/07 09:12:30;;;;;;;4.00;3.60;;;34.30;20.70;;;;;;4934611;29;20392;-78
2023/07/07 09:15:00;;;;;;;4.45;4.05;;;34.50;21.80;;;;;;4934741;29;20271;-79
2023/07/07 09:17:32;;;;;;;4.85;3.90;;;34.30;20.30;;;;;;4934951;29;20212;-78
2023/07/07 09:20:03;;;;;;;4.15;3.75;;;34.60;17.30;;;;;;4934809;29;20231;-78
2023/07/07 09:22:40;;;;;;;5.65;4.10;;;33.30;15.80;;;;;;4934311;29;20223;-77
2023/07/07 09:25:18;;;;;;;4.45;3.80;;;33.50;18.50;;;;;;4934940;29;20200;-79
2023/07/07 09:27:54;;;;;;;7.32;4.10;;;33.80;21.30;;;;;;4936462;29;20212;-80
2023/07/07 09:30:28;;;;;;;6.95;4.28;;;33.90;23.40;;;;;;4938739;29;20200;-79
2023/07/07 09:32:56;;;;;;;3.80;3.38;;;34.60;20.70;;;;;;4937885;29;20580;-79
2023/07/07 09:35:31;;;;;;;5.95;4.05;;;35.00;22.20;;;;;;4938126;29;20609;-77
2023/07/07 09:38:11;;;;;;;6.13;3.72;;;34.90;21.90;;;;;;4938471;29;20737;-79
2023/07/07 09:40:47;;;;;;;5.88;4.20;;;35.00;23.00;;;;;;4938418;29;20310;-79
2023/07/07 09:43:23;;;;;;;6.15;4.22;;;34.90;22.70;;;;;;4938056;29;20632;-79
2023/07/07 09:46:04;;;;;;;5.63;4.03;;;35.20;22.60;;;;;;4938427;29;20290;-79
2023/07/07 09:48:39;;;;;;;5.28;3.88;;;34.20;21.30;;;;;;4939114;29;20616;-78
2023/07/07 09:51:15;;;;;;;4.82;4.30;;;35.00;21.30;;;;;;4957294;29;20361;-77
2023/07/07 09:53:46;;;;;;;4.57;3.95;;;35.40;21.80;;;;;;4956807;28;20627;-78
2023/07/07 09:56:19;;;;;;;6.68;4.20;;;35.50;19.00;;;;;;4957330;29;20679;-81
2023/07/07 09:58:52;;;;;;;6.63;4.28;;;34.90;20.10;;;;;;4948843;29;20267;-80
2023/07/07 10:01:23;;;;;;;5.47;4.30;;;34.70;20.50;;;;;;4938030;29;20659;-79
2023/07/07 10:03:52;;;;;;;5.43;4.22;;;34.80;21.70;;;;;;4937904;29;20216;-79
2023/07/07 10:06:28;;;;;;;5.35;4.07;;;34.80;19.30;;;;;;4937784;29;20216;-78
2023/07/07 10:08:58;;;;;;;4.32;3.92;;;34.90;21.60;;;;;;4956084;29;20262;-78
2023/07/07 10:11:29;;;;;;;4.95;4.00;;;34.90;21.60;;;;;;4957118;28;20207;-79
2023/07/07 10:14:04;;;;;;;5.47;4.18;;;35.00;22.70;;;;;;4956927;29;20239;-79
2023/07/07 10:16:41;;;;;;;5.07;4.00;;;34.50;19.60;;;;;;4940925;29;20212;-80
2023/07/07 10:19:12;;;;;;;4.50;4.05;;;34.70;22.00;;;;;;4937883;29;20240;-78
2023/07/07 10:21:41;;;;;;;4.75;4.25;;;35.40;20.60;;;;;;4937392;29;20322;-78
2023/07/07 10:24:11;;;;;;;6.20;4.05;;;34.50;18.60;;;;;;4942506;28;20552;-78
2023/07/07 10:26:44;;;;;;;5.20;4.20;;;35.40;20.00;;;;;;4976315;28;20203;-79
2023/07/07 10:29:16;;;;;;;6.78;4.13;;;35.30;21.40;;;;;;4976052;28;20221;-79
2023/07/07 10:31:47;;;;;;;4.50;4.07;;;34.50;20.40;;;;;;4975800;28;20281;-79
2023/07/07 10:34:30;;;;;;;6.88;4.50;;;34.70;20.20;;;;;;4975895;28;20217;-78
2023/07/07 10:36:59;;;;;;;6.30;4.22;;;34.10;19.30;;;;;;4975751;28;20243;-78
2023/07/07 10:39:31;;;;;;;4.93;4.05;;;34.50;20.30;;;;;;4975150;28;20211;-79
2023/07/07 10:41:59;;;;;;;5.65;4.63;;;35.20;21.50;;;;;;4940696;28;20215;-78
2023/07/07 10:44:28;;;;;;;4.60;3.90;;;34.90;19.00;;;;;;4937350;29;20283;-78
2023/07/07 10:46:56;;;;;;;5.25;4.10;;;35.00;22.70;;;;;;4937561;29;20216;-78
2023/07/07 10:49:26;;;;;;;5.90;4.45;;;35.60;21.60;;;;;;4936917;29;20209;-77
2023/07/07 10:52:16;;;;;;;4.72;4.22;;;35.40;20.80;;;;;;4936725;29;20212;-78
2023/07/07 10:54:58;;;;;;;5.30;4.05;;;34.90;21.60;;;;;;4936988;29;20231;-77
2023/07/07 10:57:39;;;;;;;5.63;4.55;;;35.40;22.10;;;;;;4935731;29;20271;-77
2023/07/07 11:00:25;;;;;;;5.32;4.30;;;35.50;19.10;;;;;;4935946;29;20232;-79
2023/07/07 11:03:20;;;;;;;5.35;4.05;;;35.00;17.90;;;;;;4936587;29;20625;-79
2023/07/07 11:06:19;;;;;;;4.55;3.95;;;34.30;19.90;;;;;;4936640;29;20222;-79
2023/07/07 11:08:54;;;;;;;6.18;4.25;;;33.80;18.90;;;;;;4937075;29;20216;-78
2023/07/07 11:11:31;;;;;;;6.28;4.28;;;32.90;19.70;;;;;;4937096;29;20282;-76
2023/07/07 11:14:21;;;;;;;4.45;3.97;;;33.10;21.70;;;;;;4936400;29;20215;-78
2023/07/07 11:17:02;;;;;;;5.45;4.00;;;33.30;24.40;;;;;;4935456;29;20703;-77
2023/07/07 11:19:50;;;;;;;6.72;4.65;;;32.70;21.90;;;;;;4935803;29;20197;-79
2023/07/07 11:22:38;;;;;;;5.85;4.35;;;32.50;21.40;;;;;;4936150;29;20200;-79
2023/07/07 11:25:19;;;;;;;6.25;4.63;;;32.20;21.40;;;;;;4936634;29;20296;-77
2023/07/07 11:28:03;;;;;;;5.75;4.28;;;31.50;22.10;;;;;;4936518;29;20248;-76
2023/07/07 11:30:46;;;;;;;6.45;4.35;;;31.80;23.40;;;;;;4936616;29;20244;-80
2023/07/07 11:33:30;;;;;;;6.97;4.53;;;31.20;21.60;;;;;;4936699;29;20544;-75
2023/07/07 11:36:17;;;;;;;5.25;4.30;;;30.90;23.80;;;;;;4937342;29;20260;-76
2023/07/07 11:39:02;;;;;;;5.88;4.13;;;31.40;23.90;;;;;;4937262;29;20618;-77
2023/07/07 11:41:45;;;;;;;4.85;4.00;;;31.20;24.30;;;;;;4938167;29;20216;-75
2023/07/07 11:44:38;;;;;;;5.00;4.10;;;30.60;25.20;;;;;;4939605;29;20671;-75
2023/07/07 11:47:20;;;;;;;6.00;4.18;;;30.60;24.30;;;;;;4937943;29;20273;-74
2023/07/07 11:50:13;;;;;;;6.00;4.60;;;30.30;23.80;;;;;;4940408;29;20605;-75
2023/07/07 11:53:01;;;;;;;5.63;4.27;;;29.60;24.50;;;;;;4939707;29;20612;-77
2023/07/07 11:55:44;;;;;;;6.33;4.47;;;29.60;24.20;;;;;;4940725;29;20286;-75
2023/07/07 11:58:25;;;;;;;5.50;4.30;;;29.70;25.30;;;;;;4938707;29;20220;-74
2023/07/07 12:01:02;;;;;;;5.53;3.90;;;29.80;25.10;;;;;;4938043;29;20679;-76
2023/07/07 12:03:44;;;;;;;5.50;4.17;;;29.60;25.90;;;;;;4939649;29;20589;-75
2023/07/07 12:06:22;;;;;;;4.73;3.97;;;29.80;27.20;;;;;;4939230;29;20200;-76
2023/07/07 12:09:12;;;;;;;6.53;4.40;;;30.00;25.70;;;;;;4938238;29;20220;-76
2023/07/07 12:11:44;;;;;;;5.10;4.20;;;30.10;24.50;;;;;;4936500;29;20244;-76
2023/07/07 12:14:22;;;;;;;6.77;4.27;;;29.80;24.60;;;;;;4937833;29;20365;-76
2023/07/07 12:16:53;;;;;;;5.87;4.60;;;29.50;25.40;;;;;;4939116;29;20208;-74
2023/07/07 12:19:31;;;;;;;7.13;4.70;;;29.60;26.80;;;;;;4937769;29;20303;-74
2023/07/07 12:22:01;;;;;;;5.57;4.60;;;29.70;27.00;;;;;;4951310;28;20233;-78
2023/07/07 12:24:38;;;;;;;5.13;4.50;;;29.70;26.20;;;;;;4976806;28;20221;-78
2023/07/07 12:27:14;;;;;;;6.23;4.57;;;30.20;25.70;;;;;;4955950;28;20267;-75
2023/07/07 12:29:45;;;;;;;7.73;4.40;;;29.60;25.50;;;;;;4938485;29;20753;-75
2023/07/07 12:32:15;;;;;;;9.73;4.43;;;30.00;26.10;;;;;;4937886;29;20271;-76
2023/07/07 12:34:47;;;;;;;5.80;3.90;;;30.10;25.80;;;;;;4941409;29;20227;-76
2023/07/07 12:37:18;;;;;;;7.30;4.47;;;30.20;26.90;;;;;;4938681;29;20287;-73
2023/07/07 12:39:55;;;;;;;6.30;4.63;;;30.30;25.80;;;;;;4939624;29;20216;-76
2023/07/07 12:42:26;;;;;;;5.83;4.73;;;30.40;25.10;;;;;;4939381;29;20212;-75
2023/07/07 12:44:55;;;;;;;6.60;4.70;;;30.60;26.10;;;;;;4940373;29;20223;-75
2023/07/07 12:47:31;;;;;;;6.40;4.70;;;30.20;25.00;;;;;;4958955;29;20282;-74
2023/07/07 12:50:02;;;;;;;6.83;4.47;;;30.20;28.20;;;;;;4957751;29;20237;-74
2023/07/07 12:52:40;;;;;;;7.10;4.47;;;30.40;26.40;;;;;;4957773;29;20199;-75
2023/07/07 12:55:22;;;;;;;5.87;4.50;;;30.50;26.40;;;;;;4949016;29;20224;-76
2023/07/07 12:58:31;;;;;;;7.33;4.60;;;30.40;26.30;;;;;;4936136;29;20275;-74
2023/07/07 13:01:10;;;;;;;5.70;4.40;;;30.30;26.70;;;;;;4934087;29;20220;-74
2023/07/07 13:03:45;;;;;;;6.60;4.53;;;30.50;28.50;;;;;;4935078;29;20214;-75
2023/07/07 13:06:25;;;;;;;8.70;4.50;;;30.30;25.30;;;;;;4937388;29;20302;-75
2023/07/07 13:09:16;;;;;;;5.83;4.60;;;30.40;24.80;;;;;;4937164;29;20212;-75
2023/07/07 13:11:46;;;;;;;7.03;4.90;;;30.60;26.20;;;;;;4935981;29;20239;-75